Time;durP1;ratioP1;P1;durP2;ratioP2;P2;SDS_P1;SDS_P2;PMS_P1;PMS_P2;Temp;Humidity;BMP_temperature;BMP_pressure;BME280_temperature;BME280_humidity;BME280_pressure;Samples;Min_cycle;Max_cycle;Signal;HPM_P1;HPM_P2
2024/02/01 00:01:55;;;;;;;47.40;23.10;;;;;;;6.12;58.70;100833.70;108253;1250;71550;-66
2024/02/01 00:04:22;;;;;;;54.00;25.60;;;;;;;6.03;58.74;100832.54;108330;1250;70090;-66
2024/02/01 00:06:50;;;;;;;48.60;24.40;;;;;;;6.00;58.74;100835.18;108234;1250;72558;-66
2024/02/01 00:09:18;;;;;;;48.90;24.70;;;;;;;5.89;59.27;100836.27;108278;1250;60915;-65
2024/02/01 00:11:46;;;;;;;51.50;25.50;;;;;;;6.01;58.84;100832.91;108165;1250;59385;-66
2024/02/01 00:14:14;;;;;;;48.60;24.40;;;;;;;6.03;58.62;100835.86;108200;1250;73012;-65
2024/02/01 00:16:41;;;;;;;46.00;24.50;;;;;;;5.90;59.10;100831.92;108265;1250;68971;-66
2024/02/01 00:19:09;;;;;;;53.30;26.10;;;;;;;5.83;59.69;100833.86;108211;1250;72650;-67
2024/02/01 00:21:36;;;;;;;42.10;22.30;;;;;;;5.85;59.44;100833.16;108177;1252;59603;-66
2024/02/01 00:24:05;;;;;;;54.00;27.20;;;;;;;5.91;59.49;100830.68;108298;1250;59955;-67
2024/02/01 00:26:32;;;;;;;49.90;24.50;;;;;;;5.91;59.53;100830.69;108226;1250;72732;-66
2024/02/01 00:29:00;;;;;;;51.50;26.60;;;;;;;5.85;59.49;100832.45;108225;1250;70288;-67
2024/02/01 00:31:27;;;;;;;55.40;27.10;;;;;;;5.85;59.50;100837.52;108297;1250;70655;-66
2024/02/01 00:33:55;;;;;;;50.20;24.80;;;;;;;5.87;59.79;100839.94;108165;1251;60506;-66
2024/02/01 00:36:23;;;;;;;54.30;26.50;;;;;;;5.92;59.60;100831.71;108197;1251;59529;-67
2024/02/01 00:38:50;;;;;;;56.20;26.40;;;;;;;5.90;59.56;100835.23;108118;1256;72968;-67
2024/02/01 00:41:18;;;;;;;54.40;25.20;;;;;;;5.90;59.74;100832.95;108081;1251;69183;-67
2024/02/01 00:43:46;;;;;;;57.70;28.00;;;;;;;5.95;59.90;100829.10;108093;1251;72482;-66
2024/02/01 00:46:14;;;;;;;48.60;23.30;;;;;;;6.03;59.82;100822.09;108037;1251;59616;-66
2024/02/01 00:48:42;;;;;;;53.50;26.80;;;;;;;6.07;59.84;100822.05;108129;1251;59497;-66
2024/02/01 00:51:09;;;;;;;50.80;26.00;;;;;;;6.11;59.75;100817.32;108120;1251;72340;-66
2024/02/01 00:53:40;;;;;;;54.90;26.90;;;;;;;6.40;59.53;100817.23;108085;1256;69284;-66
2024/02/01 00:56:08;;;;;;;57.40;28.90;;;;;;;6.82;58.40;100812.83;108101;1253;72457;-66
2024/02/01 00:58:35;;;;;;;52.50;25.30;;;;;;;7.06;57.83;100804.53;108140;1253;59501;-66
2024/02/01 01:01:03;;;;;;;57.60;29.30;;;;;;;7.09;57.75;100805.02;108157;1251;60088;-64
2024/02/01 01:03:31;;;;;;;57.20;28.00;;;;;;;6.80;58.42;100799.24;108235;1251;71793;-67
2024/02/01 01:06:00;;;;;;;56.60;26.40;;;;;;;6.30;59.73;100798.50;108121;1255;70488;-67
2024/02/01 01:08:28;;;;;;;58.80;29.80;;;;;;;6.05;60.72;100797.15;108119;1254;71610;-66
2024/02/01 01:10:56;;;;;;;59.20;27.70;;;;;;;6.05;60.58;100795.91;108097;1253;59663;-66
2024/02/01 01:13:23;;;;;;;66.00;29.10;;;;;;;5.96;61.39;100787.63;108164;1256;59685;-66
2024/02/01 01:15:51;;;;;;;69.70;29.40;;;;;;;5.98;61.76;100783.58;108141;1251;73040;-65
2024/02/01 01:18:18;;;;;;;61.20;26.90;;;;;;;6.05;61.86;100782.33;108077;1257;68720;-67
2024/02/01 01:20:46;;;;;;;63.10;30.70;;;;;;;6.17;61.53;100786.94;108150;1251;70946;-65
2024/02/01 01:23:13;;;;;;;63.80;31.80;;;;;;;6.15;61.85;100783.98;108124;1253;59854;-66
2024/02/01 01:25:41;;;;;;;67.40;30.80;;;;;;;6.20;61.70;100779.07;108111;1255;60133;-65
2024/02/01 01:28:08;;;;;;;58.30;29.00;;;;;;;6.25;61.65;100770.29;108095;1251;73609;-66
2024/02/01 01:30:36;;;;;;;66.00;30.00;;;;;;;6.30;61.37;100769.02;108137;1257;69973;-66
2024/02/01 01:53:50;;;;;;;50.40;26.00;;;;;;;6.91;59.54;100725.80;104881;1289;599465;-66
2024/02/01 01:56:18;;;;;;;67.90;32.40;;;;;;;7.04;59.29;100720.41;107285;1264;60326;-65
2024/02/01 01:58:45;;;;;;;58.50;29.90;;;;;;;7.02;58.99;100712.92;107319;1264;59603;-65
2024/02/01 02:01:13;;;;;;;58.30;28.20;;;;;;;6.95;59.05;100713.88;107321;1262;70978;-65
2024/02/01 02:03:41;;;;;;;62.80;29.90;;;;;;;6.95;59.07;100720.17;107348;1264;70177;-66
2024/02/01 02:06:09;;;;;;;60.50;29.20;;;;;;;6.61;59.64;100716.21;107333;1263;71767;-66
2024/02/01 02:08:37;;;;;;;65.90;33.60;;;;;;;6.81;59.25;100715.10;107466;1262;113881;-66
2024/02/01 02:11:04;;;;;;;65.10;31.60;;;;;;;6.78;59.12;100712.00;107516;1259;59265;-66
2024/02/01 02:13:32;;;;;;;58.10;28.70;;;;;;;6.75;59.21;100711.51;107445;1260;72281;-65
2024/02/01 02:15:59;;;;;;;66.70;31.90;;;;;;;6.76;58.84;100713.77;107507;1260;70133;-66
2024/02/01 02:18:27;;;;;;;56.50;28.10;;;;;;;6.75;58.70;100706.11;107441;1259;70292;-65
2024/02/01 02:20:56;;;;;;;60.10;28.90;;;;;;;6.57;59.44;100698.11;107447;1260;60119;-66
2024/02/01 02:23:24;;;;;;;60.30;29.60;;;;;;;6.58;59.27;100697.75;107455;1260;59858;-66
2024/02/01 02:25:51;;;;;;;59.80;30.60;;;;;;;6.07;60.50;100697.40;107483;1259;73033;-65
2024/02/01 02:28:20;;;;;;;72.70;33.70;;;;;;;5.95;61.03;100697.33;107594;1259;70118;-66
2024/02/01 02:30:48;;;;;;;65.10;30.60;;;;;;;5.90;60.99;100700.85;108053;1251;71476;-65
2024/02/01 02:33:15;;;;;;;63.40;28.90;;;;;;;5.89;61.41;100698.25;108034;1253;59651;-65
2024/02/01 02:35:44;;;;;;;78.80;34.70;;;;;;;5.97;61.07;100695.08;108111;1253;60282;-66
2024/02/01 02:38:12;;;;;;;56.10;27.30;;;;;;;5.91;60.97;100691.78;108126;1253;73053;-65
2024/02/01 02:40:39;;;;;;;72.20;33.70;;;;;;;5.81;61.14;100689.42;108072;1253;69525;-65
2024/02/01 02:43:07;;;;;;;68.80;32.30;;;;;;;5.73;61.51;100687.05;108042;1253;71729;-64
2024/02/01 02:45:34;;;;;;;71.50;32.50;;;;;;;5.70;61.58;100685.67;108035;1253;60865;-65
2024/02/01 02:48:05;;;;;;;77.60;35.40;;;;;;;5.64;61.57;100685.38;108055;1253;60763;-65
2024/02/01 02:50:32;;;;;;;69.40;34.40;;;;;;;5.46;62.23;100686.91;108012;1258;72081;-66
2024/02/01 02:53:00;;;;;;;70.50;33.30;;;;;;;5.55;61.87;100678.30;108001;1253;68713;-66
2024/02/01 02:55:28;;;;;;;74.20;34.40;;;;;;;5.56;61.90;100669.94;107906;1258;72765;-66
2024/02/01 02:57:55;;;;;;;80.00;37.20;;;;;;;5.53;61.95;100665.96;108042;1255;61238;-66
2024/02/01 03:00:23;;;;;;;82.60;37.30;;;;;;;5.42;62.63;100659.23;108034;1254;59476;-65
2024/02/01 03:02:51;;;;;;;77.50;35.80;;;;;;;5.42;62.39;100652.63;108004;1258;71766;-67
2024/02/01 03:05:19;;;;;;;72.70;33.10;;;;;;;5.49;62.45;100647.02;108085;1253;68816;-65
2024/02/01 03:07:46;;;;;;;78.10;38.10;;;;;;;5.49;62.13;100643.69;108013;1256;71404;-64
2024/02/01 03:10:15;;;;;;;66.00;32.00;;;;;;;5.39;62.25;100647.25;108026;1255;59857;-65
2024/02/01 03:12:43;;;;;;;62.20;31.10;;;;;;;5.42;62.37;100643.41;108066;1258;59503;-64
2024/02/01 03:15:10;;;;;;;73.80;35.30;;;;;;;5.37;62.32;100644.32;108086;1254;71839;-66
2024/02/01 03:17:38;;;;;;;67.90;31.50;;;;;;;5.39;62.48;100637.85;108061;1253;68685;-65
2024/02/01 03:20:22;;;;;;;79.00;35.20;;;;;;;5.40;62.68;100640.46;107852;1256;71941;-67
2024/02/01 03:22:56;;;;;;;70.40;32.20;;;;;;;5.39;62.44;100641.16;108063;1253;60060;-66
2024/02/01 03:25:31;;;;;;;77.50;36.60;;;;;;;5.37;62.80;100644.65;108060;1253;59978;-66
2024/02/01 03:28:04;;;;;;;89.40;38.30;;;;;;;5.36;63.30;100640.84;108113;1253;72198;-66
2024/02/01 03:30:33;;;;;;;77.30;36.30;;;;;;;5.38;62.86;100638.37;108095;1253;68296;-66
2024/02/01 03:33:03;;;;;;;82.10;37.80;;;;;;;5.44;63.02;100634.86;107994;1256;70525;-66
2024/02/01 03:35:31;;;;;;;82.60;37.60;;;;;;;5.42;63.27;100630.52;108028;1258;59170;-66
2024/02/01 03:38:01;;;;;;;68.70;34.00;;;;;;;5.37;63.65;100627.24;108101;1253;60544;-66
2024/02/01 03:40:28;;;;;;;83.30;37.50;;;;;;;5.34;63.94;100625.53;108113;1253;74031;-66
2024/02/01 03:42:56;;;;;;;70.90;33.60;;;;;;;5.29;64.28;100623.31;108057;1253;70049;-66
2024/02/01 03:45:24;;;;;;;74.60;34.40;;;;;;;5.30;64.47;100618.59;108054;1253;72710;-66
2024/02/01 03:47:51;;;;;;;77.20;36.40;;;;;;;5.36;64.43;100618.90;108060;1255;60004;-66
2024/02/01 03:50:19;;;;;;;70.60;33.70;;;;;;;5.33;64.63;100615.78;108034;1258;60700;-65
2024/02/01 03:52:47;;;;;;;79.70;37.50;;;;;;;5.47;64.32;100609.75;108069;1253;73013;-66
2024/02/01 03:55:17;;;;;;;80.80;37.20;;;;;;;5.44;64.39;100608.02;108062;1253;68401;-66
2024/02/01 03:57:45;;;;;;;78.60;36.90;;;;;;;5.45;64.52;100602.63;107828;1256;71339;-66
2024/02/01 04:00:28;;;;;;;80.70;37.70;;;;;;;5.46;64.36;100601.40;107858;1253;59856;-66
2024/02/01 04:03:03;;;;;;;80.60;36.40;;;;;;;5.41;64.49;100598.30;107993;1258;59507;-66
2024/02/01 04:05:37;;;;;;;80.00;36.80;;;;;;;5.45;64.37;100596.36;108053;1258;73087;-66
2024/02/01 04:08:06;;;;;;;86.40;37.20;;;;;;;5.44;64.18;100589.93;107979;1253;70292;-66
2024/02/01 04:10:34;;;;;;;74.50;34.20;;;;;;;5.40;64.26;100591.88;108002;1253;74980;-65
2024/02/01 04:13:06;;;;;;;74.20;36.30;;;;;;;5.33;64.68;100585.48;108040;1253;60158;-66
2024/02/01 04:15:36;;;;;;;83.30;37.80;;;;;;;5.35;64.64;100586.86;107909;1253;59419;-66
2024/02/01 04:18:04;;;;;;;76.80;35.80;;;;;;;5.30;64.77;100586.05;108020;1254;72940;-66
2024/02/01 04:20:32;;;;;;;83.50;39.60;;;;;;;5.19;65.20;100589.42;108039;1253;69015;-65
2024/02/01 04:23:00;;;;;;;82.00;37.90;;;;;;;5.32;64.55;100587.07;108056;1256;71171;-67
2024/02/01 04:25:28;;;;;;;81.10;34.90;;;;;;;5.40;64.44;100590.31;108017;1255;60910;-66
2024/02/01 04:27:55;;;;;;;85.30;40.20;;;;;;;5.31;64.50;100592.83;108003;1258;60091;-66
2024/02/01 04:30:25;;;;;;;75.70;34.40;;;;;;;5.36;64.27;100592.06;108005;1253;72214;-67
2024/02/01 04:32:53;;;;;;;85.70;39.00;;;;;;;5.39;64.28;100594.31;108017;1253;70375;-66
2024/02/01 04:35:21;;;;;;;77.90;38.90;;;;;;;5.54;63.77;100590.18;107847;1256;71500;-66
2024/02/01 04:37:52;;;;;;;81.90;37.50;;;;;;;5.55;63.53;100589.83;107844;1256;60891;-66
2024/02/01 04:40:21;;;;;;;86.80;39.10;;;;;;;5.49;63.92;100583.09;108093;1253;59533;-66
2024/02/01 04:42:52;;;;;;;77.10;36.80;;;;;;;5.50;63.84;100578.19;108041;1253;70816;-66
2024/02/01 04:45:20;;;;;;;80.30;35.60;;;;;;;5.48;63.91;100578.56;108011;1253;68860;-67
2024/02/01 04:47:48;;;;;;;82.70;39.20;;;;;;;5.55;63.62;100570.66;107952;1253;71804;-66
2024/02/01 04:50:16;;;;;;;79.40;37.00;;;;;;;5.42;63.77;100566.61;107859;1256;59597;-65
2024/02/01 04:52:43;;;;;;;79.60;36.80;;;;;;;5.22;64.33;100564.15;108061;1258;59654;-66
2024/02/01 04:55:11;;;;;;;85.70;37.60;;;;;;;5.15;64.44;100558.82;108023;1253;71587;-66
2024/02/01 04:57:39;;;;;;;73.10;35.60;;;;;;;5.08;64.78;100555.56;107990;1254;69839;-67
2024/02/01 05:00:13;;;;;;;88.50;40.80;;;;;;;5.12;64.47;100554.33;107995;1258;70243;-67
2024/02/01 05:02:41;;;;;;;87.40;39.50;;;;;;;5.12;64.51;100551.36;108003;1253;60923;-66
2024/02/01 05:05:10;;;;;;;84.40;37.60;;;;;;;5.20;64.36;100552.51;108075;1255;59529;-66
2024/02/01 05:07:37;;;;;;;92.50;42.00;;;;;;;5.21;64.53;100553.03;108044;1253;73071;-66
2024/02/01 05:10:07;;;;;;;79.30;35.50;;;;;;;5.30;64.53;100547.03;108000;1253;69582;-66
2024/02/01 05:12:35;;;;;;;78.20;36.90;;;;;;;5.39;64.43;100542.43;108039;1253;72807;-66
2024/02/01 05:15:07;;;;;;;80.90;36.40;;;;;;;5.44;64.16;100544.65;108111;1253;59917;-65
2024/02/01 05:17:35;;;;;;;73.50;33.00;;;;;;;5.52;64.07;100543.52;108029;1253;60221;-66
2024/02/01 05:20:08;;;;;;;85.40;39.90;;;;;;;5.55;64.39;100538.10;108050;1253;72069;-66
2024/02/01 05:22:36;;;;;;;76.50;36.20;;;;;;;5.52;64.29;100533.08;108038;1253;70337;-66
2024/02/01 05:25:19;;;;;;;85.80;39.30;;;;;;;5.49;64.65;100534.67;108037;1253;72927;-66
2024/02/01 05:27:50;;;;;;;85.00;39.50;;;;;;;5.47;64.86;100539.23;108028;1253;59880;-66
2024/02/01 05:30:20;;;;;;;69.70;33.70;;;;;;;5.53;64.71;100536.71;108024;1253;59977;-65
2024/02/01 05:32:52;;;;;;;71.20;35.40;;;;;;;5.52;65.19;100535.33;108026;1253;71823;-66
2024/02/01 05:35:29;;;;;;;78.30;37.30;;;;;;;5.58;64.80;100532.30;107856;1253;70115;-66
2024/02/01 05:37:57;;;;;;;74.30;34.60;;;;;;;5.63;65.10;100527.92;108075;1253;71911;-66
2024/02/01 05:40:25;;;;;;;87.00;40.10;;;;;;;5.61;65.46;100524.27;108067;1253;59656;-66
2024/02/01 05:42:52;;;;;;;81.70;36.60;;;;;;;5.63;65.51;100520.77;108085;1253;59979;-66
2024/02/01 05:45:20;;;;;;;72.00;35.80;;;;;;;5.63;65.85;100518.85;108069;1255;73053;-66
2024/02/01 05:47:51;;;;;;;78.50;37.20;;;;;;;5.71;66.07;100519.12;108052;1253;69604;-67
2024/02/01 05:50:19;;;;;;;76.10;35.70;;;;;;;5.72;66.25;100516.84;108026;1253;71782;-65
2024/02/01 05:52:47;;;;;;;83.60;39.20;;;;;;;5.83;65.99;100506.61;107975;1255;59677;-65
2024/02/01 05:55:14;;;;;;;83.30;40.30;;;;;;;5.85;66.17;100504.86;108012;1253;59507;-66
2024/02/01 05:57:42;;;;;;;83.40;39.40;;;;;;;5.89;66.30;100498.35;108024;1253;73312;-65
2024/02/01 06:00:12;;;;;;;90.30;42.20;;;;;;;6.04;65.81;100497.14;108033;1253;68852;-68
2024/02/01 06:02:41;;;;;;;75.60;38.30;;;;;;;6.10;65.77;100493.25;108014;1253;71452;-67
2024/02/01 06:05:09;;;;;;;78.80;38.80;;;;;;;6.13;65.99;100499.48;108009;1253;60864;-66
2024/02/01 06:07:37;;;;;;;92.00;40.30;;;;;;;6.15;65.85;100497.55;108047;1253;60692;-64
2024/02/01 06:10:07;;;;;;;82.40;37.40;;;;;;;6.19;65.55;100497.49;108006;1253;73897;-66
2024/02/01 06:12:37;;;;;;;82.70;38.50;;;;;;;6.19;65.44;100493.65;108020;1253;69183;-66
2024/02/01 06:15:06;;;;;;;;;;;;;;;6.27;65.44;100490.75;107996;1255;71972;-66
2024/02/01 06:17:35;;;;;;;80.40;35.80;;;;;;;6.43;64.81;100491.05;108009;1255;61209;-66
2024/02/01 06:20:04;;;;;;;83.70;37.70;;;;;;;6.63;64.27;100489.38;108018;1253;60439;-67
2024/02/01 06:22:31;;;;;;;79.20;37.90;;;;;;;6.75;63.91;100482.89;108037;1253;73892;-66
2024/02/01 06:24:59;;;;;;;78.10;38.10;;;;;;;6.73;63.75;100476.64;108004;1253;70202;-66
2024/02/01 06:27:26;;;;;;;80.10;38.70;;;;;;;6.93;63.38;100471.44;108027;1253;71458;-66
2024/02/01 06:29:54;;;;;;;72.60;35.30;;;;;;;7.08;63.10;100469.80;108027;1256;60307;-66
2024/02/01 06:32:22;;;;;;;83.40;39.80;;;;;;;7.19;62.75;100462.79;108036;1253;60556;-67
2024/02/01 06:34:57;;;;;;;73.90;37.40;;;;;;;7.32;62.27;100458.02;108042;1253;73624;-66
2024/02/01 06:37:28;;;;;;;76.20;36.50;;;;;;;7.36;62.43;100462.84;108008;1253;72637;-67
2024/02/01 06:40:10;;;;;;;81.50;38.50;;;;;;;7.38;62.51;100457.73;107991;1255;75073;-67
2024/02/01 06:42:54;;;;;;;;;;;;;;;7.38;62.28;100456.86;108000;1253;60463;-65
2024/02/01 06:45:29;;;;;;;71.50;35.50;;;;;;;7.44;62.48;100460.06;108048;1253;60400;-67
2024/02/01 06:48:10;;;;;;;76.10;37.60;;;;;;;7.47;62.38;100450.93;108096;1253;72623;-66
2024/02/01 06:50:54;;;;;;;76.20;36.50;;;;;;;7.44;62.15;100449.75;108020;1253;68819;-67
2024/02/01 06:53:32;;;;;;;68.20;32.80;;;;;;;7.34;62.79;100451.15;108015;1252;72899;-67
2024/02/01 06:56:06;;;;;;;72.60;35.60;;;;;;;7.37;62.73;100447.98;108062;1254;60442;-66
2024/02/01 06:58:49;;;;;;;71.00;33.80;;;;;;;7.32;62.68;100439.69;108092;1253;60342;-66
2024/02/01 07:04:16;;;;;;;75.20;36.40;;;;;;;7.41;61.80;100427.10;108122;1253;69104;-66
2024/02/01 07:09:37;;;;;;;65.90;32.90;;;;;;;7.71;61.46;100428.44;108036;1253;60950;-67
2024/02/01 07:15:19;;;;;;;71.40;36.00;;;;;;;8.08;60.99;100430.61;107789;1253;72842;-67
2024/02/01 07:17:47;;;;;;;70.20;33.10;;;;;;;8.26;59.86;100424.27;108111;1253;68843;-66
2024/02/01 07:20:23;;;;;;;70.70;35.80;;;;;;;8.41;59.37;100420.11;108082;1253;72708;-66
2024/02/01 07:23:03;;;;;;;66.60;33.00;;;;;;;8.10;59.72;100416.77;108072;1253;60437;-66
2024/02/01 07:25:33;;;;;;;67.20;31.00;;;;;;;8.13;59.61;100411.95;108035;1258;60776;-65
2024/02/01 07:58:38;;;;;;;59.20;27.70;;;;;;;10.72;53.23;100367.09;108027;1253;70286;-66
2024/02/01 08:01:14;;;;;;;57.50;27.80;;;;;;;11.09;51.82;100364.23;108014;1253;74998;-66
2024/02/01 08:03:55;;;;;;;53.90;29.10;;;;;;;11.27;50.62;100359.05;108061;1253;60812;-67
2024/02/01 08:09:13;;;;;;;45.90;24.60;;;;;;;10.94;50.39;100349.67;108119;1253;72432;-67
2024/02/01 08:11:42;;;;;;;53.50;27.90;;;;;;;11.04;50.25;100350.38;108078;1253;69038;-67
2024/02/01 08:14:16;;;;;;;49.90;25.20;;;;;;;11.04;50.33;100349.81;108016;1253;71551;-67
2024/02/01 08:16:44;;;;;;;48.80;24.80;;;;;;;11.11;50.16;100349.42;108026;1254;60906;-66
2024/02/01 08:19:11;;;;;;;61.20;27.60;;;;;;;11.12;49.91;100347.45;108084;1253;60519;-65
2024/02/01 08:21:53;;;;;;;49.40;25.20;;;;;;;11.29;49.52;100344.21;108031;1253;74262;-66
2024/02/01 08:24:22;;;;;;;52.00;27.50;;;;;;;11.42;49.12;100340.36;108035;1253;69218;-67
2024/02/01 08:26:52;;;;;;;51.50;27.10;;;;;;;11.49;48.87;100339.23;108013;1253;71238;-66
2024/02/01 08:29:24;;;;;;;49.80;26.30;;;;;;;11.57;48.77;100332.26;108019;1254;61148;-68
2024/02/01 08:31:53;;;;;;;53.20;27.00;;;;;;;11.47;48.47;100335.79;108050;1253;60418;-67
2024/02/01 08:34:21;;;;;;;49.50;26.20;;;;;;;11.43;48.67;100334.02;108032;1253;73677;-67
2024/02/01 08:36:49;;;;;;;48.00;26.50;;;;;;;11.06;49.25;100329.71;108011;1253;72638;-67
2024/02/01 08:39:17;;;;;;;48.00;27.10;;;;;;;11.08;49.34;100324.20;108099;1252;74162;-66
2024/02/01 08:41:45;;;;;;;44.60;24.10;;;;;;;10.82;49.57;100315.98;108084;1253;62208;-66
2024/02/01 08:44:12;;;;;;;54.10;28.70;;;;;;;10.65;50.04;100317.83;108038;1252;60921;-66
2024/02/01 08:46:40;;;;;;;48.20;24.70;;;;;;;10.83;49.61;100312.48;108040;1253;74450;-66
2024/02/01 08:49:07;;;;;;;46.20;24.70;;;;;;;11.15;49.20;100310.07;107963;1253;70156;-67
2024/02/01 08:51:36;;;;;;;43.40;21.90;;;;;;;11.75;48.51;100309.08;107829;1253;74713;-66
2024/02/01 08:54:10;;;;;;;50.00;24.30;;;;;;;12.00;47.14;100305.80;107929;1253;60193;-67
2024/02/01 08:56:38;;;;;;;47.60;23.40;;;;;;;12.39;46.01;100300.50;107930;1253;62387;-67
2024/02/01 08:59:06;;;;;;;46.30;24.40;;;;;;;12.30;45.35;100296.50;107957;1253;73678;-66
2024/02/01 09:01:34;;;;;;;43.40;23.80;;;;;;;12.17;45.49;100295.29;107951;1253;70113;-66
2024/02/01 09:04:13;;;;;;;49.50;25.20;;;;;;;12.20;45.55;100296.20;107915;1255;72703;-67
2024/02/01 09:06:53;;;;;;;40.20;22.80;;;;;;;11.89;45.78;100293.04;107959;1253;60343;-67
2024/02/01 09:09:29;;;;;;;45.10;23.50;;;;;;;11.69;46.14;100288.34;107937;1253;62169;-67
2024/02/01 09:11:57;;;;;;;44.70;24.20;;;;;;;11.49;46.52;100288.07;107925;1253;76171;-67
2024/02/01 09:14:27;;;;;;;39.20;22.30;;;;;;;11.28;46.96;100286.06;107968;1253;70335;-67
2024/02/01 09:16:56;;;;;;;41.70;22.90;;;;;;;11.31;47.05;100278.55;107899;1253;72997;-67
2024/02/01 09:19:24;;;;;;;46.30;24.60;;;;;;;11.34;46.96;100274.55;107922;1254;61136;-66
2024/02/01 09:21:52;;;;;;;41.30;21.60;;;;;;;11.20;47.21;100275.64;108020;1253;62300;-67
2024/02/01 09:24:20;;;;;;;47.70;24.90;;;;;;;10.97;47.81;100273.66;107934;1253;74325;-68
2024/02/01 09:26:48;;;;;;;47.80;24.50;;;;;;;10.95;47.99;100272.48;107925;1253;69703;-67
2024/02/01 09:29:15;;;;;;;47.00;24.00;;;;;;;10.80;48.16;100266.19;107949;1253;72935;-66
2024/02/01 09:31:44;;;;;;;49.80;25.60;;;;;;;10.61;48.68;100259.67;107940;1253;60868;-66
2024/02/01 09:34:14;;;;;;;46.90;22.70;;;;;;;10.41;49.12;100256.16;108086;1252;60442;-67
2024/02/01 09:36:43;;;;;;;;;;;;;;;10.36;49.35;100249.46;108114;1255;74233;-67
2024/02/01 09:39:11;;;;;;;52.40;24.10;;;;;;;10.40;49.51;100242.49;108048;1253;70093;-68
2024/02/01 09:41:40;;;;;;;44.30;23.30;;;;;;;10.37;49.47;100242.23;108082;1254;71652;-66
2024/02/01 09:44:09;;;;;;;49.40;24.60;;;;;;;10.35;49.54;100236.19;108084;1254;60878;-67
2024/02/01 09:46:36;;;;;;;51.90;25.70;;;;;;;10.22;49.92;100234.50;108071;1256;62165;-67
2024/02/01 09:49:04;;;;;;;52.90;25.70;;;;;;;10.09;50.14;100227.20;108126;1253;72685;-67
2024/02/01 09:51:41;;;;;;;51.30;26.80;;;;;;;10.09;50.35;100222.59;107990;1253;70288;-67
2024/02/01 09:54:11;;;;;;;56.60;25.30;;;;;;;10.03;50.37;100218.98;108025;1253;73209;-68
2024/02/01 09:56:40;;;;;;;51.30;26.20;;;;;;;9.98;50.52;100219.84;108039;1253;61005;-68
2024/02/01 09:59:14;;;;;;;49.30;25.00;;;;;;;10.13;50.53;100217.41;107922;1253;59178;-67
2024/02/01 10:01:42;;;;;;;52.20;24.30;;;;;;;10.06;50.47;100212.19;108027;1253;71538;-68
2024/02/01 10:04:13;;;;;;;56.60;27.10;;;;;;;9.77;50.94;100208.92;107984;1253;69297;-68
2024/02/01 10:06:40;;;;;;;48.50;23.60;;;;;;;9.83;51.07;100204.20;107895;1253;73026;-67
2024/02/01 10:09:25;;;;;;;50.50;24.60;;;;;;;10.01;50.67;100203.94;107954;1253;61356;-68
2024/02/01 10:11:56;;;;;;;51.40;25.80;;;;;;;10.02;50.57;100202.14;108045;1253;60309;-67
2024/02/01 10:14:34;;;;;;;45.90;23.00;;;;;;;9.94;50.66;100197.69;107987;1253;75112;-67
2024/02/01 10:17:05;;;;;;;47.50;25.50;;;;;;;9.73;51.05;100191.37;108025;1253;72600;-67
2024/02/01 10:19:34;;;;;;;51.10;25.40;;;;;;;9.78;51.11;100188.05;108022;1253;74952;-67
2024/02/01 10:22:09;;;;;;;45.20;22.10;;;;;;;9.96;50.62;100178.88;108000;1253;63070;-65
2024/02/01 10:24:48;;;;;;;40.40;22.40;;;;;;;10.02;50.45;100173.58;107979;1253;60444;-65
2024/02/01 10:27:19;;;;;;;50.20;25.30;;;;;;;10.03;50.53;100166.00;108035;1253;73028;-67
2024/02/01 10:29:47;;;;;;;42.70;21.60;;;;;;;9.89;50.69;100161.39;108006;1253;70439;-68
2024/02/01 10:32:16;;;;;;;53.60;26.10;;;;;;;10.21;50.21;100160.30;107987;1253;72783;-67
2024/02/01 10:34:53;;;;;;;48.40;23.60;;;;;;;10.41;49.78;100150.82;108196;1253;61811;-68
2024/02/01 10:37:21;;;;;;;46.20;22.00;;;;;;;10.41;49.44;100145.23;108001;1253;62289;-67
2024/02/01 10:39:53;;;;;;;51.50;25.20;;;;;;;10.41;49.39;100142.56;107759;1253;75284;-68
2024/02/01 10:42:22;;;;;;;45.90;21.60;;;;;;;10.05;49.87;100141.54;107967;1253;72704;-66
2024/02/01 10:44:50;;;;;;;43.70;22.60;;;;;;;9.88;50.31;100130.55;107988;1253;72538;-66
2024/02/01 10:47:20;;;;;;;41.70;22.90;;;;;;;9.85;50.70;100120.30;107885;1253;62925;-69
2024/02/01 10:49:54;;;;;;;45.60;22.80;;;;;;;9.93;50.30;100115.46;108072;1253;62314;-67
2024/02/01 10:52:22;;;;;;;43.30;22.50;;;;;;;10.00;50.42;100106.64;107958;1253;76045;-66
2024/02/01 10:54:49;;;;;;;41.20;20.50;;;;;;;10.15;50.13;100098.21;108028;1253;70993;-67
2024/02/01 10:57:18;;;;;;;40.50;20.40;;;;;;;10.27;49.57;100094.27;107993;1253;72815;-66
2024/02/01 10:59:46;;;;;;;40.50;21.60;;;;;;;10.36;49.52;100089.92;107916;1253;62783;-66
2024/02/01 11:02:15;;;;;;;39.40;19.90;;;;;;;10.46;49.29;100094.64;107976;1253;60193;-66
2024/02/01 11:04:48;;;;;;;41.80;21.00;;;;;;;10.52;49.19;100091.64;108018;1258;75674;-66
2024/02/01 11:07:22;;;;;;;37.50;20.40;;;;;;;10.65;49.25;100085.02;108002;1253;72612;-67
2024/02/01 11:09:51;;;;;;;42.80;18.50;;;;;;;10.70;48.55;100080.75;107973;1253;74095;-67
2024/02/01 11:12:24;;;;;;;46.80;21.40;;;;;;;10.68;48.48;100079.60;107976;1256;61260;-67
2024/02/01 11:14:52;;;;;;;37.00;21.10;;;;;;;10.60;48.86;100072.91;108043;1253;60473;-67
2024/02/01 11:17:26;;;;;;;36.10;19.70;;;;;;;10.67;48.60;100068.23;108090;1253;74135;-67
2024/02/01 11:19:54;;;;;;;39.90;20.90;;;;;;;10.72;48.59;100066.45;108007;1253;72445;-67
2024/02/01 11:22:22;;;;;;;35.50;18.40;;;;;;;10.77;48.53;100060.82;108023;1258;72784;-66
2024/02/01 11:25:04;;;;;;;39.90;19.20;;;;;;;10.85;48.20;100055.95;108010;1253;60552;-67
2024/02/01 11:27:36;;;;;;;36.20;18.30;;;;;;;10.89;48.32;100052.82;108027;1253;60220;-65
2024/02/01 11:30:19;;;;;;;33.90;18.00;;;;;;;10.73;48.58;100046.08;108007;1253;74050;-67
2024/02/01 11:32:47;;;;;;;38.10;19.10;;;;;;;10.60;48.79;100031.11;107860;1254;70173;-67
2024/02/01 11:35:16;;;;;;;37.50;20.10;;;;;;;10.81;48.70;100029.23;108072;1256;74430;-67
2024/02/01 11:37:44;;;;;;;34.00;19.40;;;;;;;10.74;48.57;100026.55;107657;1256;61667;-67
2024/02/01 11:40:18;;;;;;;40.00;21.40;;;;;;;10.78;48.56;100019.73;107908;1254;61067;-67
2024/02/01 11:42:46;;;;;;;40.20;20.60;;;;;;;10.60;49.03;100016.00;107992;1254;73008;-68
2024/02/01 11:45:17;;;;;;;;;;;;;;;10.58;48.98;100020.29;108002;1256;71422;-66
2024/02/01 11:47:45;;;;;;;35.80;18.90;;;;;;;10.71;48.93;100010.14;107908;1255;72905;-64
2024/02/01 11:50:12;;;;;;;36.90;19.10;;;;;;;10.49;49.22;100005.91;107950;1256;61161;-66
2024/02/01 11:52:50;;;;;;;36.50;19.50;;;;;;;10.50;49.38;99999.20;107857;1254;60452;-68
2024/02/01 11:55:18;;;;;;;35.30;19.60;;;;;;;10.69;49.19;99997.77;107880;1254;74009;-67
2024/02/01 11:59:33;;;;;;;41.50;20.30;;;;;;;9.10;53.31;99994.60;104875;1289;600943;-66
2024/02/01 12:02:00;;;;;;;41.30;18.90;;;;;;;10.12;50.67;99982.91;107293;1270;63183;-66
2024/02/01 12:04:30;;;;;;;43.10;19.30;;;;;;;10.21;50.22;99981.51;107240;1264;61386;-67
2024/02/01 12:06:58;;;;;;;40.00;18.50;;;;;;;10.25;50.22;99979.09;107454;1263;71149;-67
2024/02/01 12:09:26;;;;;;;38.10;20.00;;;;;;;10.04;50.41;99973.70;107546;1263;69397;-67
2024/02/01 12:11:54;;;;;;;39.90;20.50;;;;;;;9.99;50.75;99971.64;107392;1268;72794;-67
2024/02/01 12:14:22;;;;;;;35.20;17.70;;;;;;;10.00;50.73;99968.08;107475;1265;122255;-67
2024/02/01 12:16:53;;;;;;;36.20;18.40;;;;;;;10.00;50.66;99967.73;107506;1265;60231;-67
2024/02/01 12:19:24;;;;;;;38.80;18.00;;;;;;;10.41;50.19;99965.48;107487;1261;72541;-67
2024/02/01 12:21:55;;;;;;;34.80;17.60;;;;;;;10.37;50.10;99964.23;107551;1261;68381;-67
2024/02/01 12:24:25;;;;;;;40.60;19.70;;;;;;;10.44;49.90;99963.83;107458;1260;75009;-67